Detall de PIREP

Printer-friendly versionPDF version

[2014/02/14 21:01:00]
Flight IATA:CT2309
Pilot Number:044
Company ICAO:CAT
Aircraft Type:F100/A
PAX:100
Aircraft Registration:PFJ
Departing Airport: LIMJ
Destination Airport: LIEA
Alternate Airport:LIEO
Online: VATSIM
Route:UNITA UM858 CORSI
Flight Level:F230
No Slew and time accel
No pause
Crash detect
Detect pilot in Cockpit between each 30 and 45 minutes
21:01 Zero fuel Weight: 81826 Lbs, Fuel Weight: 10859 Lbs
21:01 VATSIM:LIMJ 142050Z 04004KT 9999 SCT030 11/06 Q1015
21:01 VATSIM:LIEA 142050Z 19013KT 9000 BKN013 14/13 Q1016
21:01 VOICE CATALONIAN
21:02 Parking Brakes off
21:07 Take-off
21:07 Take off Weight: 92270 Lbs
21:07 Wind: 040º @ 004 Knots Heading: 287º
21:07 POS N44º 24´ 56´´ E008º 49´ 24´´
21:07 Flaps:1 at 192 Knots
21:07 Gear Up: 204 Knots
21:08 Flaps:0 at 229 Knots
21:20 TOC
21:20 Fuel Weight: 8800 Lb
21:22 Wind:258º@010 Knots Heading: 185º Ground Speed: 405 Knots Altitude 23015 ft
21:27 TOD
21:27 Fuel Weight: 8206 Lb
21:37 Wind:047º@009 Knots Heading: 175º Ground Speed: 336 Knots Altitude 9051 ft
21:51 Flaps:1 at 192 Knots
21:52 Wind:190º@011 Knots Heading: 202º Ground Speed: 154 Knots Altitude 1263 ft
21:52 Flaps:2 at 164 Knots
21:52 Gear Down: 155 Knots
21:52 Flaps:3 at 153 Knots
21:52 Flaps:4 at 149 Knots
21:54 TouchDown:Rate -364 ft/min Speed: 122 Knots
21:54 VATSIM:LIEA 142120Z 19011KT 9000 BKN013 14/13 Q1016
21:54 Land
21:54 Wind:190º@011 Knots
21:54 Heading: 201º
21:54 Flight Duration: 00:47
21:54 Landing Weight: 88594 Lbs
21:54 POS N40º 37´ 20´´ E008º 17´ 06´´
21:59 Parking brakes on
21:59 Block to Block Duration: 00:57
21:59 Final Fuel: 6567 Lbls
21:59 Spent Fuel: 4292 Lbls
21:59 Flight Length: 243 NM
21:59 TOD Land Length: 127 NM

Exportar CSV

Powered by Drupal - Modified by Danger4k